sensor_id;sensor_type;location;lat;lon;timestamp;temperature;humidity
31975;DHT22;18500;43.618;1.474;2023-04-03T05:57:52;8.60;1.00
31975;DHT22;18500;43.618;1.474;2023-04-03T06:00:18;8.50;1.00
31975;DHT22;18500;43.618;1.474;2023-04-03T06:02:44;8.50;1.00
31975;DHT22;18500;43.618;1.474;2023-04-03T06:05:10;8.60;1.00
31975;DHT22;18500;43.618;1.474;2023-04-03T06:07:37;8.60;1.00
31975;DHT22;18500;43.618;1.474;2023-04-03T06:10:04;8.60;1.00
31975;DHT22;18500;43.618;1.474;2023-04-03T06:12:30;8.60;1.00
31975;DHT22;18500;43.618;1.474;2023-04-03T06:14:56;8.60;1.00
31975;DHT22;18500;43.618;1.474;2023-04-03T06:17:22;8.60;1.00
31975;DHT22;18500;43.618;1.474;2023-04-03T06:19:48;8.70;1.00
31975;DHT22;18500;43.618;1.474;2023-04-03T06:22:15;8.70;1.00
31975;DHT22;18500;43.618;1.474;2023-04-03T06:24:41;8.70;1.00
31975;DHT22;18500;43.618;1.474;2023-04-03T06:27:07;8.70;1.00
31975;DHT22;18500;43.618;1.474;2023-04-03T06:29:33;8.70;1.00
31975;DHT22;18500;43.618;1.474;2023-04-03T06:31:58;8.70;1.00
31975;DHT22;18500;43.618;1.474;2023-04-03T06:34:24;8.80;1.00
31975;DHT22;18500;43.618;1.474;2023-04-03T06:36:50;8.70;1.00
31975;DHT22;18500;43.618;1.474;2023-04-03T06:39:18;8.80;1.00
31975;DHT22;18500;43.618;1.474;2023-04-03T06:41:45;8.70;1.00
31975;DHT22;18500;43.618;1.474;2023-04-03T06:44:11;8.80;1.00
31975;DHT22;18500;43.618;1.474;2023-04-03T06:46:39;8.90;1.00
31975;DHT22;18500;43.618;1.474;2023-04-03T06:49:05;8.90;1.00
31975;DHT22;18500;43.618;1.474;2023-04-03T06:51:33;8.90;1.00
31975;DHT22;18500;43.618;1.474;2023-04-03T06:53:59;8.80;1.00
31975;DHT22;18500;43.618;1.474;2023-04-03T06:56:26;8.70;1.00
31975;DHT22;18500;43.618;1.474;2023-04-03T06:58:52;8.90;1.00
31975;DHT22;18500;43.618;1.474;2023-04-03T07:01:20;8.90;1.00
31975;DHT22;18500;43.618;1.474;2023-04-03T07:03:47;8.90;1.00
31975;DHT22;18500;43.618;1.474;2023-04-03T07:06:14;8.90;1.00
31975;DHT22;18500;43.618;1.474;2023-04-03T07:08:41;9.00;1.00
31975;DHT22;18500;43.618;1.474;2023-04-03T07:11:08;9.00;1.00
31975;DHT22;18500;43.618;1.474;2023-04-03T07:13:34;9.00;1.00
31975;DHT22;18500;43.618;1.474;2023-04-03T07:16:00;9.00;1.00
31975;DHT22;18500;43.618;1.474;2023-04-03T07:18:26;9.10;1.00
31975;DHT22;18500;43.618;1.474;2023-04-03T07:20:52;9.10;1.00
31975;DHT22;18500;43.618;1.474;2023-04-03T07:23:18;9.10;1.00
31975;DHT22;18500;43.618;1.474;2023-04-03T07:25:45;9.20;1.00
31975;DHT22;18500;43.618;1.474;2023-04-03T07:28:11;9.20;1.00
31975;DHT22;18500;43.618;1.474;2023-04-03T07:30:48;9.20;1.00
31975;DHT22;18500;43.618;1.474;2023-04-03T07:33:15;9.20;1.00
31975;DHT22;18500;43.618;1.474;2023-04-03T07:35:41;9.30;1.00
31975;DHT22;18500;43.618;1.474;2023-04-03T07:38:08;9.30;1.00
31975;DHT22;18500;43.618;1.474;2023-04-03T07:40:35;9.20;1.00
31975;DHT22;18500;43.618;1.474;2023-04-03T07:43:01;9.30;1.00
31975;DHT22;18500;43.618;1.474;2023-04-03T07:45:27;9.40;1.00
31975;DHT22;18500;43.618;1.474;2023-04-03T07:47:53;9.50;1.00
31975;DHT22;18500;43.618;1.474;2023-04-03T07:50:19;9.60;1.00
31975;DHT22;18500;43.618;1.474;2023-04-03T07:52:45;9.70;1.00
31975;DHT22;18500;43.618;1.474;2023-04-03T07:55:12;9.70;1.00
31975;DHT22;18500;43.618;1.474;2023-04-03T07:57:37;9.80;1.00
31975;DHT22;18500;43.618;1.474;2023-04-03T08:00:04;9.80;1.00
31975;DHT22;18500;43.618;1.474;2023-04-03T08:02:30;9.80;1.00
31975;DHT22;18500;43.618;1.474;2023-04-03T08:04:58;9.60;1.00
31975;DHT22;18500;43.618;1.474;2023-04-03T08:07:23;9.60;1.00
31975;DHT22;18500;43.618;1.474;2023-04-03T08:09:49;9.70;1.00
31975;DHT22;18500;43.618;1.474;2023-04-03T08:12:15;9.80;1.00
31975;DHT22;18500;43.618;1.474;2023-04-03T08:14:41;9.80;1.00
31975;DHT22;18500;43.618;1.474;2023-04-03T08:17:06;9.60;1.00
31975;DHT22;18500;43.618;1.474;2023-04-03T08:19:35;9.70;1.00
31975;DHT22;18500;43.618;1.474;2023-04-03T08:22:01;9.80;1.00
31975;DHT22;18500;43.618;1.474;2023-04-03T08:24:28;9.90;1.00
31975;DHT22;18500;43.618;1.474;2023-04-03T08:26:54;9.80;1.00
31975;DHT22;18500;43.618;1.474;2023-04-03T08:29:21;9.70;1.00
31975;DHT22;18500;43.618;1.474;2023-04-03T08:31:46;9.80;1.00
31975;DHT22;18500;43.618;1.474;2023-04-03T08:34:13;10.00;1.00
31975;DHT22;18500;43.618;1.474;2023-04-03T08:36:39;10.20;1.00
31975;DHT22;18500;43.618;1.474;2023-04-03T08:39:05;10.30;1.00
31975;DHT22;18500;43.618;1.474;2023-04-03T08:49:26;11.00;1.00
31975;DHT22;18500;43.618;1.474;2023-04-03T08:51:55;10.80;1.00
31975;DHT22;18500;43.618;1.474;2023-04-03T08:54:28;10.60;1.00
31975;DHT22;18500;43.618;1.474;2023-04-03T08:56:56;10.70;1.00
31975;DHT22;18500;43.618;1.474;2023-04-03T08:59:28;10.70;1.00
31975;DHT22;18500;43.618;1.474;2023-04-03T09:01:57;10.80;1.00
31975;DHT22;18500;43.618;1.474;2023-04-03T09:04:26;10.90;1.00
31975;DHT22;18500;43.618;1.474;2023-04-03T09:06:58;10.90;1.00
31975;DHT22;18500;43.618;1.474;2023-04-03T09:09:39;10.70;1.00
31975;DHT22;18500;43.618;1.474;2023-04-03T09:15:07;10.90;1.00
31975;DHT22;18500;43.618;1.474;2023-04-03T09:23:47;11.30;1.00
31975;DHT22;18500;43.618;1.474;2023-04-03T09:26:20;11.00;1.00
31975;DHT22;18500;43.618;1.474;2023-04-03T09:28:48;11.00;1.00
31975;DHT22;18500;43.618;1.474;2023-04-03T09:31:23;11.50;1.00
31975;DHT22;18500;43.618;1.474;2023-04-03T09:33:52;11.50;1.00
31975;DHT22;18500;43.618;1.474;2023-04-03T09:36:41;11.70;1.00
31975;DHT22;18500;43.618;1.474;2023-04-03T09:39:12;11.80;1.00
31975;DHT22;18500;43.618;1.474;2023-04-03T09:41:38;11.90;1.00
31975;DHT22;18500;43.618;1.474;2023-04-03T09:44:24;11.90;1.00
31975;DHT22;18500;43.618;1.474;2023-04-03T09:46:50;12.20;1.00
31975;DHT22;18500;43.618;1.474;2023-04-03T09:49:17;12.40;1.00
31975;DHT22;18500;43.618;1.474;2023-04-03T09:51:43;12.40;1.00
31975;DHT22;18500;43.618;1.474;2023-04-03T09:54:37;12.00;1.00
31975;DHT22;18500;43.618;1.474;2023-04-03T09:57:08;12.00;1.00
31975;DHT22;18500;43.618;1.474;2023-04-03T09:59:36;12.20;1.00
31975;DHT22;18500;43.618;1.474;2023-04-03T10:04:46;12.50;1.00
31975;DHT22;18500;43.618;1.474;2023-04-03T10:07:30;12.20;1.00
31975;DHT22;18500;43.618;1.474;2023-04-03T10:09:58;12.30;1.00
31975;DHT22;18500;43.618;1.474;2023-04-03T10:12:24;11.90;1.00
31975;DHT22;18500;43.618;1.474;2023-04-03T10:14:57;12.00;1.00
31975;DHT22;18500;43.618;1.474;2023-04-03T10:17:46;12.40;1.00
31975;DHT22;18500;43.618;1.474;2023-04-03T10:20:43;12.20;1.00
31975;DHT22;18500;43.618;1.474;2023-04-03T10:23:21;12.50;1.00
31975;DHT22;18500;43.618;1.474;2023-04-03T10:28:46;12.80;1.00
31975;DHT22;18500;43.618;1.474;2023-04-03T10:34:06;12.60;1.00
31975;DHT22;18500;43.618;1.474;2023-04-03T10:36:48;12.40;1.00
31975;DHT22;18500;43.618;1.474;2023-04-03T10:39:31;12.40;1.00
31975;DHT22;18500;43.618;1.474;2023-04-03T10:50:43;12.90;1.00
31975;DHT22;18500;43.618;1.474;2023-04-03T10:58:49;13.30;1.00
31975;DHT22;18500;43.618;1.474;2023-04-03T11:01:21;12.90;1.00
31975;DHT22;18500;43.618;1.474;2023-04-03T11:03:57;13.20;1.00
31975;DHT22;18500;43.618;1.474;2023-04-03T11:06:26;13.80;1.00
31975;DHT22;18500;43.618;1.474;2023-04-03T11:09:05;13.10;1.00
31975;DHT22;18500;43.618;1.474;2023-04-03T11:11:38;12.80;1.00
31975;DHT22;18500;43.618;1.474;2023-04-03T11:16:46;12.70;1.00
31975;DHT22;18500;43.618;1.474;2023-04-03T11:19:30;13.20;1.00
31975;DHT22;18500;43.618;1.474;2023-04-03T11:25:23;13.40;1.00
31975;DHT22;18500;43.618;1.474;2023-04-03T11:28:06;13.00;1.00
31975;DHT22;18500;43.618;1.474;2023-04-03T11:30:46;13.50;1.00
31975;DHT22;18500;43.618;1.474;2023-04-03T11:33:47;13.60;1.00
31975;DHT22;18500;43.618;1.474;2023-04-03T11:36:33;13.50;1.00
31975;DHT22;18500;43.618;1.474;2023-04-03T11:39:07;13.30;1.00
31975;DHT22;18500;43.618;1.474;2023-04-03T11:41:35;13.20;1.00
31975;DHT22;18500;43.618;1.474;2023-04-03T11:44:05;13.40;1.00
31975;DHT22;18500;43.618;1.474;2023-04-03T11:58:12;14.00;1.00
31975;DHT22;18500;43.618;1.474;2023-04-03T12:16:02;13.70;1.00
31975;DHT22;18500;43.618;1.474;2023-04-03T12:21:19;13.90;1.00
31975;DHT22;18500;43.618;1.474;2023-04-03T12:34:46;13.60;1.00
31975;DHT22;18500;43.618;1.474;2023-04-03T12:46:33;13.30;1.00
31975;DHT22;18500;43.618;1.474;2023-04-03T12:48:49;13.20;1.00
31975;DHT22;18500;43.618;1.474;2023-04-03T12:51:21;12.90;1.00
31975;DHT22;18500;43.618;1.474;2023-04-03T12:53:49;13.20;1.00
31975;DHT22;18500;43.618;1.474;2023-04-03T12:56:24;13.20;1.00
31975;DHT22;18500;43.618;1.474;2023-04-03T12:58:52;13.30;1.00
31975;DHT22;18500;43.618;1.474;2023-04-03T13:01:26;13.30;1.00
31975;DHT22;18500;43.618;1.474;2023-04-03T13:03:57;13.30;1.00
31975;DHT22;18500;43.618;1.474;2023-04-03T13:06:25;13.30;1.00
31975;DHT22;18500;43.618;1.474;2023-04-03T13:08:56;13.50;1.00
31975;DHT22;18500;43.618;1.474;2023-04-03T13:11:24;13.70;1.00
31975;DHT22;18500;43.618;1.474;2023-04-03T13:14:02;14.00;1.00
31975;DHT22;18500;43.618;1.474;2023-04-03T13:16:31;14.50;1.00
31975;DHT22;18500;43.618;1.474;2023-04-03T13:18:57;16.70;1.00
31975;DHT22;18500;43.618;1.474;2023-04-03T13:21:28;16.20;1.00
31975;DHT22;18500;43.618;1.474;2023-04-03T13:24:00;16.10;1.00
31975;DHT22;18500;43.618;1.474;2023-04-03T13:26:30;16.10;1.00
31975;DHT22;18500;43.618;1.474;2023-04-03T13:29:05;15.50;1.00
31975;DHT22;18500;43.618;1.474;2023-04-03T13:31:35;15.00;1.00
31975;DHT22;18500;43.618;1.474;2023-04-03T13:34:12;14.90;1.00
31975;DHT22;18500;43.618;1.474;2023-04-03T13:36:41;14.90;1.00
31975;DHT22;18500;43.618;1.474;2023-04-03T13:41:46;14.20;1.00
31975;DHT22;18500;43.618;1.474;2023-04-03T13:49:30;14.60;1.00
31975;DHT22;18500;43.618;1.474;2023-04-03T13:51:56;14.60;1.00
31975;DHT22;18500;43.618;1.474;2023-04-03T13:54:30;14.30;1.00
31975;DHT22;18500;43.618;1.474;2023-04-03T13:56:59;13.80;1.00
31975;DHT22;18500;43.618;1.474;2023-04-03T13:59:29;13.90;1.00
31975;DHT22;18500;43.618;1.474;2023-04-03T14:04:47;14.00;1.00
31975;DHT22;18500;43.618;1.474;2023-04-03T14:07:16;14.10;1.00
31975;DHT22;18500;43.618;1.474;2023-04-03T14:09:42;14.40;1.00
31975;DHT22;18500;43.618;1.474;2023-04-03T14:12:35;14.30;1.00
31975;DHT22;18500;43.618;1.474;2023-04-03T14:15:04;13.90;1.00
31975;DHT22;18500;43.618;1.474;2023-04-03T14:17:31;13.90;1.00
31975;DHT22;18500;43.618;1.474;2023-04-03T14:19:57;13.90;1.00
31975;DHT22;18500;43.618;1.474;2023-04-03T14:22:32;13.90;1.00
31975;DHT22;18500;43.618;1.474;2023-04-03T14:24:58;14.20;1.00
31975;DHT22;18500;43.618;1.474;2023-04-03T14:27:33;13.70;1.00
31975;DHT22;18500;43.618;1.474;2023-04-03T14:30:00;13.40;1.00
31975;DHT22;18500;43.618;1.474;2023-04-03T14:32:27;13.30;1.00
31975;DHT22;18500;43.618;1.474;2023-04-03T14:34:53;13.20;1.00
31975;DHT22;18500;43.618;1.474;2023-04-03T14:37:24;13.00;1.00
31975;DHT22;18500;43.618;1.474;2023-04-03T14:39:51;13.20;1.00
31975;DHT22;18500;43.618;1.474;2023-04-03T14:42:21;13.70;1.00
31975;DHT22;18500;43.618;1.474;2023-04-03T14:44:48;14.10;1.00
31975;DHT22;18500;43.618;1.474;2023-04-03T14:47:16;13.90;1.00
31975;DHT22;18500;43.618;1.474;2023-04-03T14:49:43;14.00;1.00
31975;DHT22;18500;43.618;1.474;2023-04-03T14:52:25;13.80;1.00
31975;DHT22;18500;43.618;1.474;2023-04-03T14:54:52;13.70;1.00
31975;DHT22;18500;43.618;1.474;2023-04-03T14:57:18;13.70;1.00
31975;DHT22;18500;43.618;1.474;2023-04-03T14:59:45;13.90;1.00
31975;DHT22;18500;43.618;1.474;2023-04-03T15:02:35;14.40;1.00
31975;DHT22;18500;43.618;1.474;2023-04-03T15:05:04;14.50;1.00
31975;DHT22;18500;43.618;1.474;2023-04-03T15:07:34;14.40;1.00
31975;DHT22;18500;43.618;1.474;2023-04-03T15:10:05;14.40;1.00
31975;DHT22;18500;43.618;1.474;2023-04-03T15:12:38;14.20;1.00
31975;DHT22;18500;43.618;1.474;2023-04-03T15:15:04;14.00;1.00
31975;DHT22;18500;43.618;1.474;2023-04-03T15:17:30;14.10;1.00
31975;DHT22;18500;43.618;1.474;2023-04-03T15:19:56;14.00;1.00
31975;DHT22;18500;43.618;1.474;2023-04-03T15:22:22;13.70;1.00
31975;DHT22;18500;43.618;1.474;2023-04-03T15:24:47;14.10;1.00
31975;DHT22;18500;43.618;1.474;2023-04-03T15:27:13;14.20;1.00
31975;DHT22;18500;43.618;1.474;2023-04-03T15:29:41;14.30;1.00
31975;DHT22;18500;43.618;1.474;2023-04-03T15:32:08;14.40;1.00
31975;DHT22;18500;43.618;1.474;2023-04-03T15:34:35;14.60;1.00
31975;DHT22;18500;43.618;1.474;2023-04-03T15:37:01;14.70;1.00
31975;DHT22;18500;43.618;1.474;2023-04-03T15:39:26;14.40;1.00
31975;DHT22;18500;43.618;1.474;2023-04-03T15:41:53;14.20;1.00
31975;DHT22;18500;43.618;1.474;2023-04-03T15:44:20;14.60;1.00
31975;DHT22;18500;43.618;1.474;2023-04-03T15:46:47;14.80;1.00
31975;DHT22;18500;43.618;1.474;2023-04-03T15:49:14;15.00;1.00
31975;DHT22;18500;43.618;1.474;2023-04-03T15:51:40;15.00;1.00
31975;DHT22;18500;43.618;1.474;2023-04-03T15:54:06;14.60;1.00
31975;DHT22;18500;43.618;1.474;2023-04-03T15:56:31;14.20;1.00
31975;DHT22;18500;43.618;1.474;2023-04-03T15:58:57;14.00;1.00
31975;DHT22;18500;43.618;1.474;2023-04-03T16:01:23;13.70;1.00
31975;DHT22;18500;43.618;1.474;2023-04-03T16:03:48;13.50;1.00
31975;DHT22;18500;43.618;1.474;2023-04-03T16:06:15;13.40;1.00
31975;DHT22;18500;43.618;1.474;2023-04-03T16:08:41;13.50;1.00
31975;DHT22;18500;43.618;1.474;2023-04-03T16:11:08;13.50;1.00
31975;DHT22;18500;43.618;1.474;2023-04-03T16:13:33;13.60;1.00
31975;DHT22;18500;43.618;1.474;2023-04-03T16:16:00;13.80;1.00
31975;DHT22;18500;43.618;1.474;2023-04-03T16:18:27;13.60;1.00
31975;DHT22;18500;43.618;1.474;2023-04-03T16:20:52;13.60;1.00
31975;DHT22;18500;43.618;1.474;2023-04-03T16:23:19;13.50;1.00
31975;DHT22;18500;43.618;1.474;2023-04-03T16:25:44;13.40;1.00
31975;DHT22;18500;43.618;1.474;2023-04-03T16:28:13;14.40;1.00
31975;DHT22;18500;43.618;1.474;2023-04-03T16:30:43;14.10;1.00
31975;DHT22;18500;43.618;1.474;2023-04-03T16:33:10;13.80;1.00
31975;DHT22;18500;43.618;1.474;2023-04-03T16:35:36;13.60;1.00
31975;DHT22;18500;43.618;1.474;2023-04-03T16:38:02;13.70;1.00
31975;DHT22;18500;43.618;1.474;2023-04-03T16:40:28;13.80;1.00
31975;DHT22;18500;43.618;1.474;2023-04-03T16:42:53;13.70;1.00
31975;DHT22;18500;43.618;1.474;2023-04-03T16:45:19;13.50;1.00
31975;DHT22;18500;43.618;1.474;2023-04-03T16:47:45;13.30;1.00
31975;DHT22;18500;43.618;1.474;2023-04-03T16:50:11;13.30;1.00
31975;DHT22;18500;43.618;1.474;2023-04-03T16:52:36;13.30;1.00
31975;DHT22;18500;43.618;1.474;2023-04-03T16:55:02;13.10;1.00
31975;DHT22;18500;43.618;1.474;2023-04-03T16:57:28;12.80;1.00
31975;DHT22;18500;43.618;1.474;2023-04-03T16:59:54;12.70;1.00
31975;DHT22;18500;43.618;1.474;2023-04-03T17:02:21;12.60;1.00
31975;DHT22;18500;43.618;1.474;2023-04-03T17:04:50;12.70;1.00
31975;DHT22;18500;43.618;1.474;2023-04-03T17:07:18;12.80;1.00
31975;DHT22;18500;43.618;1.474;2023-04-03T17:09:43;12.90;1.00
31975;DHT22;18500;43.618;1.474;2023-04-03T17:12:09;12.90;1.00
31975;DHT22;18500;43.618;1.474;2023-04-03T17:14:35;12.70;1.00
31975;DHT22;18500;43.618;1.474;2023-04-03T17:17:02;12.60;1.00
31975;DHT22;18500;43.618;1.474;2023-04-03T17:19:28;12.70;1.00
31975;DHT22;18500;43.618;1.474;2023-04-03T17:21:54;12.70;1.00
31975;DHT22;18500;43.618;1.474;2023-04-03T17:24:20;12.60;1.00
31975;DHT22;18500;43.618;1.474;2023-04-03T17:26:46;12.50;1.00
31975;DHT22;18500;43.618;1.474;2023-04-03T17:29:11;12.30;1.00
31975;DHT22;18500;43.618;1.474;2023-04-03T17:31:37;12.30;1.00
31975;DHT22;18500;43.618;1.474;2023-04-03T17:34:03;12.20;1.00
31975;DHT22;18500;43.618;1.474;2023-04-03T17:36:29;12.20;1.00
31975;DHT22;18500;43.618;1.474;2023-04-03T17:38:55;12.20;1.00
31975;DHT22;18500;43.618;1.474;2023-04-03T17:41:22;12.30;1.00
31975;DHT22;18500;43.618;1.474;2023-04-03T17:43:47;12.30;1.00
31975;DHT22;18500;43.618;1.474;2023-04-03T17:46:13;12.30;1.00
31975;DHT22;18500;43.618;1.474;2023-04-03T17:48:41;12.20;1.00
31975;DHT22;18500;43.618;1.474;2023-04-03T17:51:09;12.10;1.00
31975;DHT22;18500;43.618;1.474;2023-04-03T17:53:35;12.00;1.00
31975;DHT22;18500;43.618;1.474;2023-04-03T17:56:08;11.90;1.00
31975;DHT22;18500;43.618;1.474;2023-04-03T17:58:35;11.90;1.00
31975;DHT22;18500;43.618;1.474;2023-04-03T18:01:25;11.80;1.00
31975;DHT22;18500;43.618;1.474;2023-04-03T18:03:53;11.70;1.00
31975;DHT22;18500;43.618;1.474;2023-04-03T18:06:21;11.70;1.00
31975;DHT22;18500;43.618;1.474;2023-04-03T18:09:02;11.90;1.00
31975;DHT22;18500;43.618;1.474;2023-04-03T18:11:29;11.70;1.00
31975;DHT22;18500;43.618;1.474;2023-04-03T18:13:58;11.70;1.00
31975;DHT22;18500;43.618;1.474;2023-04-03T18:16:24;11.70;1.00
31975;DHT22;18500;43.618;1.474;2023-04-03T18:18:50;11.60;1.00
31975;DHT22;18500;43.618;1.474;2023-04-03T18:21:16;11.50;1.00
31975;DHT22;18500;43.618;1.474;2023-04-03T18:23:46;11.40;1.00
31975;DHT22;18500;43.618;1.474;2023-04-03T18:26:13;11.40;1.00
31975;DHT22;18500;43.618;1.474;2023-04-03T18:28:41;11.40;1.00
31975;DHT22;18500;43.618;1.474;2023-04-03T18:31:08;11.30;1.00
31975;DHT22;18500;43.618;1.474;2023-04-03T18:33:36;11.20;1.00
31975;DHT22;18500;43.618;1.474;2023-04-03T18:36:04;11.20;1.00
31975;DHT22;18500;43.618;1.474;2023-04-03T18:38:30;11.10;1.00
31975;DHT22;18500;43.618;1.474;2023-04-03T18:40:55;11.10;1.00
31975;DHT22;18500;43.618;1.474;2023-04-03T18:43:22;11.00;1.00
31975;DHT22;18500;43.618;1.474;2023-04-03T18:45:51;11.00;1.00
31975;DHT22;18500;43.618;1.474;2023-04-03T18:48:16;10.90;1.00
31975;DHT22;18500;43.618;1.474;2023-04-03T18:50:42;10.90;1.00
31975;DHT22;18500;43.618;1.474;2023-04-03T18:53:10;10.90;1.00
31975;DHT22;18500;43.618;1.474;2023-04-03T18:55:35;11.00;1.00
31975;DHT22;18500;43.618;1.474;2023-04-03T18:58:01;10.90;1.00
31975;DHT22;18500;43.618;1.474;2023-04-03T19:00:27;10.70;1.00
31975;DHT22;18500;43.618;1.474;2023-04-03T19:02:53;10.80;1.00
31975;DHT22;18500;43.618;1.474;2023-04-03T19:05:18;10.90;1.00
31975;DHT22;18500;43.618;1.474;2023-04-03T19:07:45;10.90;1.00
31975;DHT22;18500;43.618;1.474;2023-04-03T19:10:15;10.90;1.00
31975;DHT22;18500;43.618;1.474;2023-04-03T19:12:46;10.90;1.00
31975;DHT22;18500;43.618;1.474;2023-04-03T19:15:14;10.90;1.00
31975;DHT22;18500;43.618;1.474;2023-04-03T19:17:40;10.90;1.00
31975;DHT22;18500;43.618;1.474;2023-04-03T19:20:07;10.90;1.00
31975;DHT22;18500;43.618;1.474;2023-04-03T19:22:34;10.70;1.00
31975;DHT22;18500;43.618;1.474;2023-04-03T19:25:00;10.80;1.00
31975;DHT22;18500;43.618;1.474;2023-04-03T19:27:26;10.80;1.00
31975;DHT22;18500;43.618;1.474;2023-04-03T19:29:52;10.80;1.00
31975;DHT22;18500;43.618;1.474;2023-04-03T19:32:17;10.70;1.00
31975;DHT22;18500;43.618;1.474;2023-04-03T19:34:43;10.60;1.00
31975;DHT22;18500;43.618;1.474;2023-04-03T19:37:08;10.70;1.00
31975;DHT22;18500;43.618;1.474;2023-04-03T19:39:36;10.70;1.00
31975;DHT22;18500;43.618;1.474;2023-04-03T19:42:03;10.60;1.00
31975;DHT22;18500;43.618;1.474;2023-04-03T19:44:30;10.60;1.00
31975;DHT22;18500;43.618;1.474;2023-04-03T19:47:01;10.60;1.00
31975;DHT22;18500;43.618;1.474;2023-04-03T19:49:28;10.60;1.00
31975;DHT22;18500;43.618;1.474;2023-04-03T19:51:54;10.60;1.00
31975;DHT22;18500;43.618;1.474;2023-04-03T19:54:20;10.50;1.00
31975;DHT22;18500;43.618;1.474;2023-04-03T19:56:46;10.50;1.00
31975;DHT22;18500;43.618;1.474;2023-04-03T19:59:12;10.50;1.00
31975;DHT22;18500;43.618;1.474;2023-04-03T20:01:38;10.50;1.00
31975;DHT22;18500;43.618;1.474;2023-04-03T20:04:04;10.50;1.00
31975;DHT22;18500;43.618;1.474;2023-04-03T20:06:30;10.40;1.00
31975;DHT22;18500;43.618;1.474;2023-04-03T20:08:56;10.40;1.00
31975;DHT22;18500;43.618;1.474;2023-04-03T20:11:22;10.40;1.00
31975;DHT22;18500;43.618;1.474;2023-04-03T20:13:49;10.40;1.00
31975;DHT22;18500;43.618;1.474;2023-04-03T20:16:15;10.30;1.00
31975;DHT22;18500;43.618;1.474;2023-04-03T20:18:41;10.30;1.00
31975;DHT22;18500;43.618;1.474;2023-04-03T20:21:07;10.30;1.00
31975;DHT22;18500;43.618;1.474;2023-04-03T20:23:34;10.20;1.00
31975;DHT22;18500;43.618;1.474;2023-04-03T20:26:03;10.10;1.00
31975;DHT22;18500;43.618;1.474;2023-04-03T20:28:30;10.10;1.00
31975;DHT22;18500;43.618;1.474;2023-04-03T20:30:56;10.10;1.00
31975;DHT22;18500;43.618;1.474;2023-04-03T20:33:23;10.10;1.00
31975;DHT22;18500;43.618;1.474;2023-04-03T20:35:51;10.00;1.00
31975;DHT22;18500;43.618;1.474;2023-04-03T20:38:18;10.00;1.00
31975;DHT22;18500;43.618;1.474;2023-04-03T20:40:45;10.10;1.00
31975;DHT22;18500;43.618;1.474;2023-04-03T20:43:11;10.00;1.00
31975;DHT22;18500;43.618;1.474;2023-04-03T20:45:36;10.00;1.00
31975;DHT22;18500;43.618;1.474;2023-04-03T20:48:02;10.00;1.00
31975;DHT22;18500;43.618;1.474;2023-04-03T20:50:31;10.00;1.00
31975;DHT22;18500;43.618;1.474;2023-04-03T20:52:58;9.90;1.00
31975;DHT22;18500;43.618;1.474;2023-04-03T20:55:24;9.80;1.00
31975;DHT22;18500;43.618;1.474;2023-04-03T20:57:49;9.70;1.00
31975;DHT22;18500;43.618;1.474;2023-04-03T21:00:16;9.70;1.00
31975;DHT22;18500;43.618;1.474;2023-04-03T21:02:44;9.80;1.00
31975;DHT22;18500;43.618;1.474;2023-04-03T21:05:10;9.40;1.00
31975;DHT22;18500;43.618;1.474;2023-04-03T21:19:24;9.10;1.00
31975;DHT22;18500;43.618;1.474;2023-04-03T21:21:50;9.10;1.00
31975;DHT22;18500;43.618;1.474;2023-04-03T21:24:17;9.20;1.00
31975;DHT22;18500;43.618;1.474;2023-04-03T21:26:44;9.20;1.00
